Time;durP1;ratioP1;P1;durP2;ratioP2;P2;SDS_P1;SDS_P2;PMS_P1;PMS_P2;Temp;Humidity;BMP_temperature;BMP_pressure;BME280_temperature;BME280_humidity;BME280_pressure;Samples;Min_cycle;Max_cycle;Signal;HPM_P1;HPM_P2
2021/08/13 00:01:12;;;;;;;53.80;38.10;;;16.20;99.90;;;;;;4227845;28;20027;-73
2021/08/13 00:03:14;;;;;;;55.65;38.45;;;16.10;99.90;;;;;;4212536;28;20037;-74
2021/08/13 00:05:14;;;;;;;47.28;35.08;;;16.00;99.90;;;;;;4229792;28;20027;-73
2021/08/13 00:07:15;;;;;;;49.55;37.35;;;16.00;99.90;;;;;;4229676;28;20071;-73
2021/08/13 00:09:18;;;;;;;49.67;37.88;;;15.90;99.90;;;;;;4224624;28;20024;-74
2021/08/13 00:11:18;;;;;;;51.65;35.20;;;15.80;99.90;;;;;;4229505;28;20111;-74
2021/08/13 00:13:19;;;;;;;45.75;34.83;;;15.80;99.90;;;;;;4227587;28;20092;-73
2021/08/13 00:15:20;;;;;;;53.17;41.80;;;15.80;99.90;;;;;;4228656;28;20036;-73
2021/08/13 00:17:20;;;;;;;49.97;36.55;;;15.80;99.90;;;;;;4229867;28;20431;-73
2021/08/13 00:19:21;;;;;;;45.47;31.77;;;15.80;99.90;;;;;;4212482;28;20487;-73
2021/08/13 00:21:22;;;;;;;50.40;36.70;;;15.70;99.90;;;;;;4227787;28;20129;-74
2021/08/13 00:23:22;;;;;;;52.15;36.22;;;15.70;99.90;;;;;;4213719;28;20051;-73
2021/08/13 00:25:23;;;;;;;56.80;39.78;;;15.60;99.90;;;;;;4215193;28;20230;-74
2021/08/13 00:27:23;;;;;;;47.03;35.42;;;15.60;99.90;;;;;;4236922;27;20035;-73
2021/08/13 00:29:24;;;;;;;52.60;37.17;;;15.60;99.90;;;;;;4228165;28;20035;-74
2021/08/13 00:31:24;;;;;;;58.90;41.20;;;15.50;99.90;;;;;;4227842;28;20508;-73
2021/08/13 00:33:25;;;;;;;50.00;35.92;;;15.50;99.90;;;;;;4212266;28;20045;-74
2021/08/13 00:35:26;;;;;;;56.95;38.08;;;15.60;99.90;;;;;;4211435;28;20035;-74
2021/08/13 00:37:27;;;;;;;55.83;37.47;;;15.60;99.90;;;;;;4211659;28;20032;-74
2021/08/13 00:39:28;;;;;;;62.72;44.08;;;15.60;99.90;;;;;;4216415;28;20040;-74
2021/08/13 00:41:29;;;;;;;53.45;41.08;;;15.60;99.90;;;;;;4227834;28;20508;-74
2021/08/13 00:43:30;;;;;;;65.82;44.75;;;15.60;99.90;;;;;;4230974;28;20097;-74
2021/08/13 00:45:31;;;;;;;58.88;40.92;;;;;;;;;;4227721;28;20028;-74
2021/08/13 00:47:32;;;;;;;63.45;44.72;;;15.60;99.90;;;;;;4228688;28;20108;-74
2021/08/13 00:49:32;;;;;;;58.17;41.15;;;15.60;99.90;;;;;;4227369;28;20416;-74
2021/08/13 00:51:34;;;;;;;57.05;41.47;;;15.60;99.90;;;;;;4229790;28;20039;-74
2021/08/13 00:53:35;;;;;;;54.70;37.33;;;15.60;99.90;;;;;;4226621;28;20038;-74
2021/08/13 00:55:35;;;;;;;54.10;38.97;;;15.60;99.90;;;;;;4231069;28;20055;-74
2021/08/13 00:57:37;;;;;;;58.28;37.95;;;15.50;99.90;;;;;;4207277;28;20032;-74
2021/08/13 00:59:40;;;;;;;56.58;39.33;;;15.40;99.90;;;;;;4229139;28;20039;-74
2021/08/13 01:01:41;;;;;;;;;;;15.40;99.90;;;;;;4209734;28;20395;-75
2021/08/13 01:03:41;;;;;;;52.30;38.17;;;15.40;99.90;;;;;;4208930;28;19916;-75
2021/08/13 01:05:42;;;;;;;52.95;37.78;;;15.30;99.90;;;;;;4229732;28;20035;-75
2021/08/13 01:07:43;;;;;;;52.42;36.05;;;15.30;99.90;;;;;;4225031;28;20411;-74
2021/08/13 01:09:44;;;;;;;49.20;35.78;;;15.30;99.90;;;;;;4212403;28;20043;-74
2021/08/13 01:11:58;;;;;;;56.50;39.33;;;15.30;99.90;;;;;;4226496;28;20114;-75
2021/08/13 01:14:35;;;;;;;57.72;40.97;;;15.30;99.90;;;;;;4214122;28;20410;-74
2021/08/13 01:16:42;;;;;;;68.53;43.65;;;15.30;99.90;;;;;;4209768;28;20134;-74
2021/08/13 01:18:56;;;;;;;58.70;37.65;;;15.20;99.90;;;;;;4210193;28;20111;-74
2021/08/13 01:21:08;;;;;;;58.65;38.88;;;15.20;99.90;;;;;;4227500;28;20040;-74
2021/08/13 01:23:21;;;;;;;61.75;41.90;;;15.20;99.90;;;;;;4208162;28;20028;-74
2021/08/13 01:25:25;;;;;;;66.93;43.83;;;15.10;99.90;;;;;;4225159;28;20036;-75
2021/08/13 01:27:54;;;;;;;60.65;40.83;;;15.10;99.90;;;;;;4228715;28;20085;-75
2021/08/13 01:30:09;;;;;;;55.95;37.40;;;15.20;99.90;;;;;;4206831;28;20048;-75
2021/08/13 01:32:12;;;;;;;55.25;35.33;;;15.10;99.90;;;;;;4227376;28;20092;-74
2021/08/13 01:34:15;;;;;;;58.13;41.08;;;15.10;99.90;;;;;;4227269;28;20539;-74
2021/08/13 01:36:18;;;;;;;63.92;42.60;;;15.00;99.90;;;;;;4225310;28;20032;-74
2021/08/13 01:38:23;;;;;;;57.28;39.35;;;15.10;99.90;;;;;;4225641;28;20038;-74
2021/08/13 01:40:26;;;;;;;58.95;39.58;;;15.10;99.90;;;;;;4219602;28;20124;-74
2021/08/13 01:42:31;;;;;;;59.35;37.50;;;;;;;;;;4228506;28;20084;-74
2021/08/13 01:44:33;;;;;;;45.22;32.50;;;15.10;99.90;;;;;;4227173;28;20029;-73
2021/08/13 01:46:34;;;;;;;55.45;39.63;;;15.10;99.90;;;;;;4229197;28;20038;-73
2021/08/13 01:48:36;;;;;;;48.28;32.50;;;15.00;99.90;;;;;;4208925;28;20234;-73
2021/08/13 01:50:37;;;;;;;55.87;38.03;;;14.90;99.90;;;;;;4227846;28;20111;-74
2021/08/13 01:52:40;;;;;;;54.95;38.08;;;14.90;99.90;;;;;;4221198;28;20784;-73
2021/08/13 01:54:40;;;;;;;59.92;39.58;;;14.80;99.90;;;;;;4227488;28;20027;-73
2021/08/13 01:56:42;;;;;;;48.35;34.40;;;14.80;99.90;;;;;;4227067;28;20063;-73
2021/08/13 01:58:44;;;;;;;46.33;35.08;;;14.80;99.90;;;;;;4227826;28;20035;-73
2021/08/13 02:00:45;;;;;;;46.63;32.03;;;14.70;99.90;;;;;;4208971;28;20682;-74
2021/08/13 02:02:47;;;;;;;51.95;32.85;;;14.70;99.90;;;;;;4229104;28;20042;-73
2021/08/13 02:04:51;;;;;;;50.70;35.03;;;14.70;99.90;;;;;;4210473;28;20031;-73
2021/08/13 02:06:52;;;;;;;44.22;33.13;;;14.70;99.90;;;;;;4211134;28;20113;-73
2021/08/13 02:08:55;;;;;;;47.33;33.33;;;14.70;99.90;;;;;;4226259;28;20518;-74
2021/08/13 02:10:56;;;;;;;52.38;35.10;;;14.60;99.90;;;;;;4224415;28;20428;-73
2021/08/13 02:12:57;;;;;;;54.65;37.22;;;14.60;99.90;;;;;;4211487;28;20028;-73
2021/08/13 02:14:58;;;;;;;42.03;30.50;;;14.60;99.90;;;;;;4228697;28;20031;-73
2021/08/13 02:17:01;;;;;;;50.30;35.47;;;14.50;99.90;;;;;;4211234;28;20029;-73
2021/08/13 02:19:08;;;;;;;45.17;30.45;;;14.50;99.90;;;;;;4226565;28;20043;-73
2021/08/13 02:21:13;;;;;;;57.90;36.60;;;14.50;99.90;;;;;;4227860;28;20043;-75
2021/08/13 02:23:19;;;;;;;53.92;36.63;;;14.40;99.90;;;;;;4209225;28;20117;-74
2021/08/13 02:25:19;;;;;;;50.38;33.22;;;14.40;99.90;;;;;;4227763;28;20027;-74
2021/08/13 02:27:20;;;;;;;52.35;33.75;;;14.40;99.90;;;;;;4226303;28;20058;-74
2021/08/13 02:29:24;;;;;;;54.55;37.75;;;14.40;99.90;;;;;;4229520;28;20110;-73
2021/08/13 02:31:24;;;;;;;52.72;33.25;;;14.50;99.90;;;;;;4226650;28;20035;-74
2021/08/13 02:33:27;;;;;;;60.78;39.45;;;14.40;99.90;;;;;;4210831;28;20032;-74
2021/08/13 02:35:30;;;;;;;52.78;34.45;;;14.40;99.90;;;;;;4215103;28;20118;-74
2021/08/13 02:37:41;;;;;;;54.45;36.17;;;14.40;99.90;;;;;;4209539;28;20040;-74
2021/08/13 02:40:04;;;;;;;63.35;37.05;;;14.40;99.90;;;;;;4215018;28;20123;-74
2021/08/13 02:42:05;;;;;;;62.17;39.03;;;14.40;99.90;;;;;;4223476;28;20066;-74
2021/08/13 02:44:07;;;;;;;54.03;35.08;;;14.40;99.90;;;;;;4228995;28;20044;-74
2021/08/13 02:46:10;;;;;;;60.20;37.10;;;14.50;99.90;;;;;;4223424;28;20027;-74
2021/08/13 02:48:14;;;;;;;60.50;39.90;;;14.40;99.90;;;;;;4208700;28;20111;-74
2021/08/13 02:50:17;;;;;;;57.00;37.10;;;14.40;99.90;;;;;;4220889;28;20042;-74
2021/08/13 02:52:23;;;;;;;49.33;33.17;;;14.30;99.90;;;;;;4224688;28;20425;-74
2021/08/13 02:54:27;;;;;;;61.97;39.00;;;14.30;99.90;;;;;;4226607;28;20032;-74
2021/08/13 02:56:32;;;;;;;;;;;14.30;99.90;;;;;;4226206;28;20059;-74
2021/08/13 02:58:39;;;;;;;58.40;34.53;;;14.30;99.90;;;;;;4210555;28;19916;-74
2021/08/13 03:00:42;;;;;;;52.92;34.95;;;14.30;99.90;;;;;;4226224;28;20092;-75
2021/08/13 03:02:47;;;;;;;54.05;34.15;;;14.30;99.90;;;;;;4212142;28;20058;-73
2021/08/13 03:04:50;;;;;;;76.18;42.35;;;14.30;99.90;;;;;;4224028;28;20036;-74
2021/08/13 03:06:51;;;;;;;56.22;34.95;;;14.30;99.90;;;;;;4226574;28;20031;-74
2021/08/13 03:08:52;;;;;;;65.25;40.35;;;14.30;99.90;;;;;;4220318;28;20024;-74
2021/08/13 03:10:53;;;;;;;60.65;38.97;;;14.30;99.90;;;;;;4209714;28;20032;-74
2021/08/13 03:12:55;;;;;;;62.40;39.10;;;14.20;99.90;;;;;;4225832;28;20123;-74
2021/08/13 03:14:58;;;;;;;70.95;39.05;;;14.30;99.90;;;;;;4221457;28;20085;-74
2021/08/13 03:17:00;;;;;;;49.78;32.75;;;14.30;99.90;;;;;;4210729;28;20028;-74
2021/08/13 03:19:03;;;;;;;53.60;33.75;;;14.30;99.90;;;;;;4206906;28;20526;-74
2021/08/13 03:21:03;;;;;;;60.72;36.20;;;14.20;99.90;;;;;;4225192;28;20032;-74
2021/08/13 03:23:05;;;;;;;58.53;35.97;;;14.20;99.90;;;;;;4210132;28;20529;-74
2021/08/13 03:25:07;;;;;;;53.15;33.35;;;14.20;99.90;;;;;;4227992;28;20038;-74
2021/08/13 03:27:09;;;;;;;61.88;38.10;;;14.20;99.90;;;;;;4207567;28;20036;-74
2021/08/13 03:29:09;;;;;;;65.13;38.72;;;14.20;99.90;;;;;;4224485;28;20098;-74
2021/08/13 03:31:31;;;;;;;55.70;34.90;;;14.20;99.90;;;;;;4223932;28;20162;-73
2021/08/13 03:33:32;;;;;;;58.83;37.25;;;14.20;99.90;;;;;;4224317;28;20043;-74
2021/08/13 03:35:33;;;;;;;52.65;33.97;;;14.20;99.90;;;;;;4227195;28;20406;-74
2021/08/13 03:37:35;;;;;;;55.65;35.45;;;14.10;99.90;;;;;;4222922;28;20097;-74
2021/08/13 03:39:36;;;;;;;53.22;33.42;;;14.10;99.90;;;;;;4226051;28;20379;-73
2021/08/13 03:41:37;;;;;;;53.00;34.60;;;14.10;99.90;;;;;;4220296;28;20051;-74
2021/08/13 03:43:37;;;;;;;57.13;36.08;;;14.00;99.90;;;;;;4208296;28;20054;-74
2021/08/13 03:45:38;;;;;;;55.65;35.65;;;14.10;99.90;;;;;;4207941;28;20039;-74
2021/08/13 03:47:39;;;;;;;61.08;37.55;;;14.00;99.90;;;;;;4228313;28;20031;-73
2021/08/13 03:49:39;;;;;;;65.85;38.20;;;14.10;99.90;;;;;;4210024;28;20706;-74
2021/08/13 03:51:40;;;;;;;55.45;29.08;;;14.00;99.90;;;;;;4211584;28;20039;-74
2021/08/13 03:53:40;;;;;;;54.47;34.38;;;14.00;99.90;;;;;;4221681;28;20498;-74
2021/08/13 03:55:41;;;;;;;50.15;33.75;;;14.00;99.90;;;;;;4228445;28;20032;-74
2021/08/13 03:57:42;;;;;;;48.33;31.90;;;14.00;99.90;;;;;;4209278;28;20063;-73
2021/08/13 03:59:43;;;;;;;62.50;37.15;;;14.00;99.90;;;;;;4209634;28;20097;-74
2021/08/13 04:01:44;;;;;;;52.90;35.00;;;13.90;99.90;;;;;;4226294;28;20035;-74
2021/08/13 04:03:44;;;;;;;57.03;36.97;;;14.00;99.90;;;;;;4209562;28;20545;-74
2021/08/13 04:05:45;;;;;;;57.40;35.72;;;14.00;99.90;;;;;;4226977;28;20043;-73
2021/08/13 04:07:45;;;;;;;59.17;37.70;;;14.00;99.90;;;;;;4228560;28;20034;-74
2021/08/13 04:09:46;;;;;;;45.38;29.58;;;13.90;99.90;;;;;;4212889;28;20424;-73
2021/08/13 04:11:46;;;;;;;49.03;30.85;;;13.90;99.90;;;;;;4223918;28;20024;-74
2021/08/13 04:13:47;;;;;;;59.63;32.80;;;13.90;99.90;;;;;;4230950;28;20080;-73
2021/08/13 04:15:47;;;;;;;64.15;35.88;;;13.90;99.90;;;;;;4224089;28;20486;-73
2021/08/13 04:17:48;;;;;;;67.05;37.53;;;13.90;99.90;;;;;;4219313;28;20168;-73
2021/08/13 04:19:49;;;;;;;59.92;38.10;;;13.90;99.90;;;;;;4228169;28;20051;-74
2021/08/13 04:21:49;;;;;;;62.17;37.05;;;14.00;99.90;;;;;;4229225;28;20039;-73
2021/08/13 04:23:50;;;;;;;59.33;36.05;;;14.10;99.90;;;;;;4228651;28;20028;-73
2021/08/13 04:25:51;;;;;;;51.63;33.65;;;14.10;99.90;;;;;;4212841;28;20483;-73
2021/08/13 04:27:51;;;;;;;61.55;37.58;;;14.30;99.90;;;;;;4227671;28;20031;-73
2021/08/13 04:29:52;;;;;;;57.42;32.80;;;14.30;99.90;;;;;;4226573;28;20368;-74
2021/08/13 04:31:53;;;;;;;67.60;39.10;;;14.30;99.90;;;;;;4227594;28;20080;-73
2021/08/13 04:33:53;;;;;;;60.15;35.65;;;14.40;99.90;;;;;;4207835;28;20558;-74
2021/08/13 04:35:54;;;;;;;48.05;29.73;;;14.40;99.90;;;;;;4231011;28;20035;-74
2021/08/13 04:37:55;;;;;;;50.70;31.25;;;14.50;99.90;;;;;;4226656;28;20032;-74
2021/08/13 04:39:55;;;;;;;64.18;35.75;;;14.60;99.90;;;;;;4223363;28;20028;-73
2021/08/13 04:41:56;;;;;;;52.17;33.08;;;14.60;99.90;;;;;;4227464;28;20051;-74
2021/08/13 04:43:56;;;;;;;51.92;30.25;;;14.60;99.90;;;;;;4225920;28;20118;-73
2021/08/13 04:45:57;;;;;;;68.35;37.80;;;14.60;99.90;;;;;;4228332;28;20073;-74
2021/08/13 04:47:59;;;;;;;74.18;36.45;;;14.70;99.90;;;;;;4219681;28;20042;-74
2021/08/13 04:50:00;;;;;;;62.83;34.47;;;14.70;99.90;;;;;;4227823;28;20035;-74
2021/08/13 04:52:00;;;;;;;58.45;33.72;;;14.70;99.90;;;;;;4212863;28;20058;-75
2021/08/13 04:54:01;;;;;;;81.80;43.58;;;14.80;99.90;;;;;;4224285;28;20075;-76
2021/08/13 04:56:02;;;;;;;68.45;37.10;;;14.80;99.90;;;;;;4225557;28;20034;-74
2021/08/13 04:58:02;;;;;;;70.50;39.00;;;15.00;99.90;;;;;;4228191;28;20085;-73
2021/08/13 05:00:05;;;;;;;75.07;39.30;;;15.10;99.90;;;;;;4227124;28;20032;-73
2021/08/13 05:02:06;;;;;;;70.28;37.05;;;15.20;99.90;;;;;;4211856;28;20555;-73
2021/08/13 05:04:07;;;;;;;83.03;42.42;;;15.40;99.90;;;;;;4226740;28;20123;-75
2021/08/13 05:06:08;;;;;;;74.93;40.70;;;15.50;99.90;;;;;;4212133;28;20170;-73
2021/08/13 05:08:09;;;;;;;87.63;43.42;;;15.60;99.90;;;;;;4210795;28;20060;-75
2021/08/13 05:10:13;;;;;;;89.05;42.05;;;15.80;99.90;;;;;;4221767;28;20517;-74
2021/08/13 05:12:13;;;;;;;92.53;47.45;;;15.90;99.90;;;;;;4224187;28;20048;-74
2021/08/13 05:14:14;;;;;;;91.57;45.28;;;16.00;99.90;;;;;;4220132;28;20439;-73
2021/08/13 05:16:14;;;;;;;83.25;42.05;;;16.10;99.90;;;;;;4227464;28;20038;-73
2021/08/13 05:18:15;;;;;;;88.03;45.35;;;16.20;99.90;;;;;;4212416;28;20032;-73
2021/08/13 05:20:15;;;;;;;87.35;43.88;;;16.20;99.90;;;;;;4211495;28;20036;-74
2021/08/13 05:22:16;;;;;;;80.45;39.83;;;16.30;99.90;;;;;;4213588;28;20047;-74
2021/08/13 05:24:17;;;;;;;82.93;41.28;;;16.40;99.90;;;;;;4227210;28;20056;-73
2021/08/13 05:26:18;;;;;;;72.63;39.42;;;16.40;99.90;;;;;;4225379;28;20051;-73
2021/08/13 05:28:19;;;;;;;65.97;32.83;;;16.50;99.90;;;;;;4211602;28;20113;-73
2021/08/13 05:30:19;;;;;;;64.43;33.95;;;16.60;99.90;;;;;;4226510;28;20032;-73
2021/08/13 05:32:20;;;;;;;57.28;32.47;;;16.70;99.90;;;;;;4212029;28;22925;-74
2021/08/13 05:34:21;;;;;;;51.72;30.75;;;16.80;99.90;;;;;;4209756;28;22393;-73
2021/08/13 05:36:21;;;;;;;49.78;29.75;;;17.00;99.90;;;;;;4225679;28;20403;-74
2021/08/13 05:38:22;;;;;;;46.65;26.90;;;17.10;99.90;;;;;;4210263;28;20020;-73
2021/08/13 05:40:22;;;;;;;42.40;24.20;;;17.10;99.90;;;;;;4230383;28;20538;-73
2021/08/13 05:42:23;;;;;;;33.75;23.58;;;17.20;99.90;;;;;;4224439;28;20056;-74
2021/08/13 05:44:24;;;;;;;37.72;23.48;;;17.30;99.90;;;;;;4226021;28;20114;-72
2021/08/13 05:46:24;;;;;;;31.33;20.98;;;17.40;99.90;;;;;;4210678;28;20032;-73
2021/08/13 05:48:25;;;;;;;26.33;20.23;;;17.40;99.90;;;;;;4218501;28;20106;-72
2021/08/13 05:50:26;;;;;;;29.60;19.65;;;17.40;99.90;;;;;;4226352;28;20429;-73
2021/08/13 05:52:26;;;;;;;23.85;19.65;;;17.40;99.90;;;;;;4226708;28;20035;-73
2021/08/13 05:54:28;;;;;;;26.15;19.25;;;17.40;99.90;;;;;;4226887;28;20024;-73
2021/08/13 05:56:28;;;;;;;27.70;19.27;;;17.50;99.90;;;;;;4209812;28;20024;-72
2021/08/13 05:58:29;;;;;;;21.63;17.73;;;17.50;99.90;;;;;;4225549;28;20427;-73
2021/08/13 06:00:29;;;;;;;24.38;18.67;;;17.50;99.90;;;;;;4210876;28;20024;-74
2021/08/13 06:02:30;;;;;;;21.55;17.63;;;17.50;99.90;;;;;;4227149;28;20533;-73
2021/08/13 06:04:31;;;;;;;21.23;15.23;;;17.60;99.90;;;;;;4227666;28;20114;-73
2021/08/13 06:06:31;;;;;;;22.02;17.23;;;17.70;99.90;;;;;;4226626;28;20506;-73
2021/08/13 06:08:32;;;;;;;21.15;16.50;;;17.70;99.90;;;;;;4209624;28;20044;-73
2021/08/13 06:10:32;;;;;;;22.30;17.83;;;17.60;99.90;;;;;;4210108;28;20499;-73
2021/08/13 06:12:33;;;;;;;25.95;17.63;;;17.70;99.90;;;;;;4221605;28;20058;-73
2021/08/13 06:14:34;;;;;;;21.20;17.05;;;17.70;99.90;;;;;;4218055;28;20475;-73
2021/08/13 06:16:35;;;;;;;25.25;16.95;;;17.80;99.90;;;;;;4222814;28;20471;-73
2021/08/13 06:18:36;;;;;;;20.13;17.15;;;17.90;99.90;;;;;;4229566;28;20031;-74
2021/08/13 06:20:37;;;;;;;20.23;16.88;;;17.90;99.90;;;;;;4224178;28;20028;-74
2021/08/13 06:22:37;;;;;;;23.45;18.17;;;18.00;99.90;;;;;;4211253;28;20065;-74
2021/08/13 06:24:38;;;;;;;23.23;18.00;;;18.00;99.90;;;;;;4227461;28;20027;-74
2021/08/13 06:26:39;;;;;;;26.63;18.58;;;18.10;99.90;;;;;;4228133;28;20069;-73
2021/08/13 06:28:40;;;;;;;22.73;16.05;;;18.10;99.90;;;;;;4208886;28;20024;-73
2021/08/13 06:30:41;;;;;;;23.15;17.30;;;18.10;99.90;;;;;;4225153;28;20380;-73
2021/08/13 06:32:42;;;;;;;22.35;16.33;;;18.10;99.90;;;;;;4210783;28;20024;-73
2021/08/13 06:34:42;;;;;;;24.45;18.55;;;18.20;99.90;;;;;;4224930;28;20072;-73
2021/08/13 06:36:44;;;;;;;29.83;18.27;;;18.20;99.90;;;;;;4208731;28;20029;-74
2021/08/13 06:38:45;;;;;;;21.02;16.42;;;18.40;99.90;;;;;;4222289;28;20030;-73
2021/08/13 06:40:46;;;;;;;21.08;16.58;;;18.50;99.90;;;;;;4226845;28;20020;-73
2021/08/13 06:42:48;;;;;;;23.40;18.13;;;18.50;99.90;;;;;;4206653;28;20046;-73
2021/08/13 06:44:49;;;;;;;25.50;17.88;;;18.50;99.90;;;;;;4210706;28;20032;-73
2021/08/13 06:46:49;;;;;;;25.45;17.23;;;18.50;99.90;;;;;;4207597;28;20035;-73
2021/08/13 06:48:50;;;;;;;23.63;17.50;;;18.60;99.90;;;;;;4209550;28;20033;-74
2021/08/13 06:50:50;;;;;;;21.50;16.45;;;18.70;99.90;;;;;;4208396;28;20051;-74
2021/08/13 06:52:51;;;;;;;23.33;17.73;;;18.70;99.90;;;;;;4209874;28;20409;-74
2021/08/13 06:54:52;;;;;;;25.08;17.52;;;18.70;99.90;;;;;;4209879;28;20039;-73
2021/08/13 06:56:52;;;;;;;20.55;16.23;;;18.70;99.90;;;;;;4208457;28;20040;-73
2021/08/13 06:58:55;;;;;;;19.00;16.02;;;18.80;99.90;;;;;;4208830;28;20032;-74
2021/08/13 07:00:56;;;;;;;21.83;17.08;;;18.80;99.90;;;;;;4211140;28;20040;-74
2021/08/13 07:02:57;;;;;;;23.15;17.20;;;18.80;99.90;;;;;;4210706;28;20497;-74
2021/08/13 07:05:03;;;;;;;21.55;16.77;;;18.90;99.90;;;;;;4205289;28;20518;-74
2021/08/13 07:07:04;;;;;;;17.17;15.18;;;19.00;99.90;;;;;;4207972;28;20024;-74
2021/08/13 07:09:05;;;;;;;22.80;17.40;;;19.00;99.90;;;;;;4207425;28;20028;-74
2021/08/13 07:11:05;;;;;;;22.00;15.88;;;19.20;99.90;;;;;;4209081;28;20028;-75
2021/08/13 07:13:06;;;;;;;21.15;16.00;;;19.30;99.90;;;;;;4206806;28;20433;-75
2021/08/13 07:15:08;;;;;;;18.55;15.55;;;19.40;99.90;;;;;;4211936;28;20093;-74
2021/08/13 07:17:09;;;;;;;17.73;14.43;;;19.40;99.90;;;;;;4210167;28;20051;-74
2021/08/13 07:19:10;;;;;;;24.13;16.85;;;19.40;99.90;;;;;;4205494;28;20032;-75
2021/08/13 07:21:11;;;;;;;19.45;16.10;;;19.40;99.90;;;;;;4207694;28;20077;-74
2021/08/13 07:23:11;;;;;;;21.40;15.52;;;19.30;99.90;;;;;;4208746;28;20028;-74
2021/08/13 07:25:12;;;;;;;23.63;17.23;;;19.40;99.90;;;;;;4209394;28;20490;-74
2021/08/13 07:27:13;;;;;;;26.15;18.63;;;19.30;99.90;;;;;;4209487;28;20383;-74
2021/08/13 07:29:13;;;;;;;21.98;17.20;;;19.40;99.90;;;;;;4206734;28;20124;-74
2021/08/13 07:31:14;;;;;;;18.70;14.43;;;19.50;99.90;;;;;;4210147;28;20044;-75
2021/08/13 07:33:16;;;;;;;17.02;13.85;;;19.60;99.90;;;;;;4202893;28;20063;-73
2021/08/13 07:35:16;;;;;;;17.48;14.68;;;19.60;99.90;;;;;;4207725;28;20044;-74
2021/08/13 07:37:17;;;;;;;19.27;13.63;;;19.60;99.90;;;;;;4209786;28;20388;-74
2021/08/13 07:39:18;;;;;;;20.85;13.38;;;19.60;99.90;;;;;;4208291;28;20044;-74
2021/08/13 07:41:19;;;;;;;20.27;13.38;;;19.70;99.90;;;;;;4211643;28;20032;-75
2021/08/13 07:43:19;;;;;;;19.98;12.65;;;19.70;99.90;;;;;;4225693;28;20036;-74
2021/08/13 07:45:20;;;;;;;16.42;12.30;;;19.80;99.90;;;;;;4226328;28;20032;-74
2021/08/13 07:47:21;;;;;;;16.00;12.55;;;19.90;99.90;;;;;;4216160;28;20434;-74
2021/08/13 07:49:21;;;;;;;20.33;12.57;;;20.10;99.90;;;;;;4224793;28;20416;-75
2021/08/13 07:51:22;;;;;;;16.80;12.73;;;20.10;99.90;;;;;;4219614;28;20131;-74
2021/08/13 07:53:23;;;;;;;13.27;11.00;;;20.10;99.90;;;;;;4227326;28;20032;-74
2021/08/13 07:55:23;;;;;;;13.98;11.88;;;20.10;99.90;;;;;;4231635;28;20514;-74
2021/08/13 07:57:25;;;;;;;14.30;11.38;;;20.30;99.90;;;;;;4213475;28;20036;-76
2021/08/13 07:59:26;;;;;;;13.43;10.75;;;;;;;;;;4213325;28;20036;-74
2021/08/13 08:01:27;;;;;;;13.65;11.30;;;20.70;99.90;;;;;;4227915;28;20118;-75
2021/08/13 08:03:27;;;;;;;15.35;11.57;;;20.90;99.90;;;;;;4227538;28;20032;-74
2021/08/13 08:05:28;;;;;;;16.85;13.68;;;21.10;99.90;;;;;;4212001;28;20536;-74
2021/08/13 08:07:28;;;;;;;15.15;13.55;;;21.20;99.90;;;;;;4218998;28;20119;-75
2021/08/13 08:09:29;;;;;;;24.02;17.58;;;21.20;99.90;;;;;;4228375;28;20040;-74
2021/08/13 08:11:30;;;;;;;17.17;15.45;;;21.40;99.90;;;;;;4213396;28;20033;-72
2021/08/13 08:13:30;;;;;;;16.40;14.50;;;21.30;99.90;;;;;;4229462;28;20028;-74
2021/08/13 08:15:31;;;;;;;16.80;14.13;;;21.40;99.90;;;;;;4222399;28;20031;-74
2021/08/13 08:17:32;;;;;;;14.30;12.88;;;21.60;99.90;;;;;;4212605;28;20038;-74
2021/08/13 08:19:33;;;;;;;16.65;13.13;;;21.40;99.90;;;;;;4212496;28;20111;-74
2021/08/13 08:21:33;;;;;;;14.40;12.75;;;21.40;99.90;;;;;;4220224;28;20047;-74
2021/08/13 08:23:34;;;;;;;13.65;12.25;;;21.50;99.90;;;;;;4226197;28;20035;-74
2021/08/13 08:25:35;;;;;;;14.93;11.98;;;21.40;99.90;;;;;;4223145;28;20092;-74
2021/08/13 08:27:36;;;;;;;14.90;12.20;;;;;;;;;;4211028;28;20111;-74
2021/08/13 08:29:36;;;;;;;13.63;12.20;;;21.10;99.90;;;;;;4227882;28;20534;-75
2021/08/13 08:31:37;;;;;;;14.98;12.40;;;21.10;99.90;;;;;;4223203;28;20046;-72
2021/08/13 08:33:38;;;;;;;13.10;11.80;;;21.10;99.90;;;;;;4227206;28;20066;-72
2021/08/13 08:35:39;;;;;;;13.18;11.18;;;21.20;99.90;;;;;;4211567;28;20051;-71
2021/08/13 08:37:50;;;;;;;14.23;12.20;;;21.20;99.90;;;;;;4229335;28;20135;-73
2021/08/13 08:39:51;;;;;;;14.93;11.60;;;21.10;99.90;;;;;;4228627;28;20052;-74
2021/08/13 08:41:52;;;;;;;13.90;11.45;;;20.80;99.90;;;;;;4212428;28;20769;-74
2021/08/13 08:43:53;;;;;;;17.77;11.45;;;20.70;99.90;;;;;;4207350;28;20119;-74
2021/08/13 08:45:54;;;;;;;11.48;10.32;;;21.00;99.90;;;;;;4206479;28;20047;-75
2021/08/13 08:48:00;;;;;;;12.38;11.15;;;21.10;99.90;;;;;;4213239;28;20387;-72
2021/08/13 08:50:01;;;;;;;12.32;11.07;;;21.10;99.90;;;;;;4210337;28;20028;-74
2021/08/13 08:52:02;;;;;;;13.60;10.55;;;20.90;99.90;;;;;;4213538;28;20518;-73
2021/08/13 08:54:03;;;;;;;12.75;11.07;;;21.10;99.90;;;;;;4206444;28;20028;-74
2021/08/13 08:56:06;;;;;;;12.25;9.98;;;21.20;99.90;;;;;;4214036;28;20036;-72
2021/08/13 08:58:08;;;;;;;14.98;9.45;;;21.50;99.90;;;;;;4210862;28;20028;-73
2021/08/13 09:00:09;;;;;;;14.97;9.50;;;21.70;99.90;;;;;;4211973;28;20032;-73
2021/08/13 09:02:11;;;;;;;9.38;8.30;;;21.90;99.90;;;;;;4210640;28;20351;-75
2021/08/13 09:04:12;;;;;;;13.35;10.27;;;22.00;99.90;;;;;;4208588;28;20071;-73
2021/08/13 09:06:14;;;;;;;13.35;8.77;;;22.10;99.90;;;;;;4209885;28;20530;-73
2021/08/13 09:08:16;;;;;;;11.02;8.88;;;22.30;99.90;;;;;;4210527;28;20029;-73
2021/08/13 09:10:17;;;;;;;12.52;8.55;;;22.20;99.90;;;;;;4207661;28;20036;-74
2021/08/13 09:12:18;;;;;;;12.35;8.93;;;22.40;99.90;;;;;;4202261;28;20032;-74
2021/08/13 09:14:19;;;;;;;11.85;7.75;;;22.70;99.90;;;;;;4205219;28;20454;-74
2021/08/13 09:16:20;;;;;;;12.38;8.00;;;22.90;99.90;;;;;;4206323;28;20036;-74
2021/08/13 09:18:22;;;;;;;12.23;7.35;;;22.80;99.90;;;;;;4213871;28;25943;-74
2021/08/13 09:20:37;;;;;;;8.05;6.68;;;22.90;99.90;;;;;;4210233;28;20101;-73
2021/08/13 09:22:43;;;;;;;8.60;6.57;;;23.20;99.90;;;;;;4212654;28;20028;-74
2021/08/13 09:24:48;;;;;;;12.85;8.15;;;23.50;99.90;;;;;;4211922;28;20028;-74
2021/08/13 09:26:49;;;;;;;9.68;7.20;;;23.30;99.90;;;;;;4214029;28;20052;-75
2021/08/13 09:28:51;;;;;;;11.68;7.28;;;23.10;99.90;;;;;;4207807;28;20039;-74
2021/08/13 09:30:52;;;;;;;7.80;6.10;;;23.00;99.90;;;;;;4212921;28;20028;-74
2021/08/13 09:33:04;;;;;;;8.10;5.40;;;23.10;99.90;;;;;;4211535;28;20109;-74
2021/08/13 09:35:05;;;;;;;10.15;6.18;;;23.20;99.90;;;;;;4211183;28;20386;-74
2021/08/13 09:37:14;;;;;;;12.03;6.87;;;;;;;;;;4204672;28;20036;-74
2021/08/13 09:39:16;;;;;;;7.38;6.03;;;23.50;99.90;;;;;;4206223;28;20032;-74
2021/08/13 09:41:19;;;;;;;9.80;6.00;;;23.40;99.90;;;;;;4213299;28;20039;-74
2021/08/13 09:43:20;;;;;;;10.57;7.38;;;23.40;99.90;;;;;;4225435;28;20036;-74
2021/08/13 09:45:20;;;;;;;13.05;6.45;;;23.40;99.90;;;;;;4209258;28;20551;-74
2021/08/13 09:47:21;;;;;;;11.93;6.55;;;23.10;99.90;;;;;;4209700;28;20040;-74
2021/08/13 09:49:22;;;;;;;9.07;6.43;;;23.10;99.90;;;;;;4223366;28;20034;-75
2021/08/13 09:51:35;;;;;;;9.57;6.40;;;23.40;99.90;;;;;;4229435;28;20028;-75
2021/08/13 09:53:36;;;;;;;8.98;6.80;;;23.70;99.90;;;;;;4208689;28;20044;-75
2021/08/13 09:55:37;;;;;;;9.25;6.45;;;23.90;99.90;;;;;;4229425;28;20058;-75
2021/08/13 09:57:45;;;;;;;12.70;7.53;;;24.00;99.90;;;;;;4223024;28;20038;-75
2021/08/13 10:00:00;;;;;;;9.23;5.78;;;24.20;99.90;;;;;;4227508;28;20375;-74
2021/08/13 10:02:12;;;;;;;8.07;5.72;;;24.20;99.90;;;;;;4225627;28;20471;-75
2021/08/13 10:04:14;;;;;;;12.20;6.53;;;24.20;99.90;;;;;;4222975;28;20368;-75
2021/08/13 10:06:28;;;;;;;11.38;6.10;;;23.80;99.90;;;;;;4208064;28;20151;-74
2021/08/13 10:08:40;;;;;;;10.68;6.82;;;24.00;99.90;;;;;;4224231;28;20032;-75
2021/08/13 10:10:42;;;;;;;9.25;6.10;;;23.70;99.90;;;;;;4224578;28;20056;-74
2021/08/13 10:12:45;;;;;;;13.00;8.25;;;23.70;99.90;;;;;;4228715;28;20059;-75
2021/08/13 10:14:45;;;;;;;10.32;6.55;;;23.90;99.90;;;;;;4226244;28;20023;-74
2021/08/13 10:16:46;;;;;;;12.48;6.80;;;24.20;99.90;;;;;;4223058;28;20024;-74
2021/08/13 10:18:48;;;;;;;8.90;5.90;;;24.40;99.90;;;;;;4219707;28;20035;-75
2021/08/13 10:20:50;;;;;;;10.07;7.30;;;;;;;;;;4223231;28;20028;-74
2021/08/13 10:22:51;;;;;;;12.25;6.03;;;;;;;;;;4215887;28;20043;-75
2021/08/13 10:24:52;;;;;;;11.52;6.35;;;;;;;;;;4225724;28;20122;-73